sensor_id;sensor_type;location;lat;lon;timestamp;temperature;humidity
13665;DHT22;6905;50.770;6.730;2022-09-09T00:01:07;17.10;99.90
13665;DHT22;6905;50.770;6.730;2022-09-09T00:03:53;17.10;99.90
13665;DHT22;6905;50.770;6.730;2022-09-09T00:06:37;17.00;99.90
13665;DHT22;6905;50.770;6.730;2022-09-09T00:09:30;17.00;99.90
13665;DHT22;6905;50.770;6.730;2022-09-09T00:15:26;17.00;99.90
13665;DHT22;6905;50.770;6.730;2022-09-09T00:18:20;17.00;99.90
13665;DHT22;6905;50.770;6.730;2022-09-09T00:21:06;17.00;99.90
13665;DHT22;6905;50.770;6.730;2022-09-09T00:23:55;17.00;99.90
13665;DHT22;6905;50.770;6.730;2022-09-09T00:26:55;17.00;99.90
13665;DHT22;6905;50.770;6.730;2022-09-09T00:29:41;17.00;99.90
13665;DHT22;6905;50.770;6.730;2022-09-09T01:08:50;16.60;99.90
13665;DHT22;6905;50.770;6.730;2022-09-09T01:14:55;16.60;99.90
13665;DHT22;6905;50.770;6.730;2022-09-09T01:17:46;16.50;99.90
13665;DHT22;6905;50.770;6.730;2022-09-09T01:20:44;16.50;99.90
13665;DHT22;6905;50.770;6.730;2022-09-09T01:23:32;16.50;99.90
13665;DHT22;6905;50.770;6.730;2022-09-09T01:59:12;16.60;99.90
13665;DHT22;6905;50.770;6.730;2022-09-09T02:02:01;16.70;99.90
13665;DHT22;6905;50.770;6.730;2022-09-09T02:04:52;16.70;99.90
13665;DHT22;6905;50.770;6.730;2022-09-09T02:07:59;16.70;99.90
13665;DHT22;6905;50.770;6.730;2022-09-09T02:10:50;16.70;99.90
13665;DHT22;6905;50.770;6.730;2022-09-09T02:34:49;16.90;99.90
13665;DHT22;6905;50.770;6.730;2022-09-09T02:37:56;16.90;99.90
13665;DHT22;6905;50.770;6.730;2022-09-09T02:40:59;16.80;99.90
13665;DHT22;6905;50.770;6.730;2022-09-09T10:28:33;22.40;99.90
13665;DHT22;6905;50.770;6.730;2022-09-09T10:31:33;22.40;99.90
13665;DHT22;6905;50.770;6.730;2022-09-09T10:34:17;22.10;99.90
13665;DHT22;6905;50.770;6.730;2022-09-09T10:37:11;21.80;99.90
13665;DHT22;6905;50.770;6.730;2022-09-09T10:40:02;21.70;99.90
13665;DHT22;6905;50.770;6.730;2022-09-09T10:42:52;21.60;99.90
13665;DHT22;6905;50.770;6.730;2022-09-09T10:53:53;21.50;99.90
13665;DHT22;6905;50.770;6.730;2022-09-09T10:56:58;21.50;99.90
13665;DHT22;6905;50.770;6.730;2022-09-09T10:59:52;21.60;99.90
13665;DHT22;6905;50.770;6.730;2022-09-09T11:02:48;21.70;99.90
13665;DHT22;6905;50.770;6.730;2022-09-09T12:00:35;22.70;99.90
13665;DHT22;6905;50.770;6.730;2022-09-09T12:06:41;22.60;99.90
13665;DHT22;6905;50.770;6.730;2022-09-09T12:09:33;22.40;99.90
13665;DHT22;6905;50.770;6.730;2022-09-09T12:12:47;22.40;99.90
13665;DHT22;6905;50.770;6.730;2022-09-09T12:40:18;22.70;99.90
13665;DHT22;6905;50.770;6.730;2022-09-09T12:43:19;22.60;99.90
13665;DHT22;6905;50.770;6.730;2022-09-09T12:51:39;23.20;99.90
13665;DHT22;6905;50.770;6.730;2022-09-09T12:54:45;23.40;99.90
13665;DHT22;6905;50.770;6.730;2022-09-09T13:09:53;24.00;99.90
13665;DHT22;6905;50.770;6.730;2022-09-09T13:13:05;24.10;99.90
13665;DHT22;6905;50.770;6.730;2022-09-09T13:22:03;24.00;99.90
13665;DHT22;6905;50.770;6.730;2022-09-09T13:22:20;23.90;99.90
13665;DHT22;6905;50.770;6.730;2022-09-09T13:43:37;24.20;99.90
13665;DHT22;6905;50.770;6.730;2022-09-09T13:46:28;23.80;99.90
13665;DHT22;6905;50.770;6.730;2022-09-09T14:23:45;23.50;99.90
13665;DHT22;6905;50.770;6.730;2022-09-09T14:26:45;23.20;99.90
13665;DHT22;6905;50.770;6.730;2022-09-09T17:45:05;18.00;99.90
13665;DHT22;6905;50.770;6.730;2022-09-09T17:47:32;17.90;99.90
13665;DHT22;6905;50.770;6.730;2022-09-09T17:49:58;17.90;99.90
13665;DHT22;6905;50.770;6.730;2022-09-09T17:52:25;17.80;99.90
13665;DHT22;6905;50.770;6.730;2022-09-09T17:54:52;17.80;99.90
13665;DHT22;6905;50.770;6.730;2022-09-09T17:57:21;17.80;99.90
13665;DHT22;6905;50.770;6.730;2022-09-09T17:59:48;17.80;99.90
13665;DHT22;6905;50.770;6.730;2022-09-09T18:02:16;17.80;99.90
13665;DHT22;6905;50.770;6.730;2022-09-09T18:04:43;17.70;99.90
13665;DHT22;6905;50.770;6.730;2022-09-09T18:07:11;17.70;99.90
13665;DHT22;6905;50.770;6.730;2022-09-09T18:09:39;17.70;99.90
13665;DHT22;6905;50.770;6.730;2022-09-09T18:12:06;17.60;99.90
13665;DHT22;6905;50.770;6.730;2022-09-09T18:14:33;17.60;99.90
13665;DHT22;6905;50.770;6.730;2022-09-09T18:17:00;17.60;99.90
13665;DHT22;6905;50.770;6.730;2022-09-09T18:19:30;17.60;99.90
13665;DHT22;6905;50.770;6.730;2022-09-09T18:21:57;17.60;99.90
13665;DHT22;6905;50.770;6.730;2022-09-09T18:24:24;17.60;99.90
13665;DHT22;6905;50.770;6.730;2022-09-09T18:26:51;17.60;99.90
13665;DHT22;6905;50.770;6.730;2022-09-09T18:29:18;17.50;99.90
13665;DHT22;6905;50.770;6.730;2022-09-09T18:31:45;17.50;99.90
13665;DHT22;6905;50.770;6.730;2022-09-09T18:34:13;17.50;99.90
13665;DHT22;6905;50.770;6.730;2022-09-09T18:36:42;17.50;99.90
13665;DHT22;6905;50.770;6.730;2022-09-09T18:39:09;17.50;99.90
13665;DHT22;6905;50.770;6.730;2022-09-09T18:41:37;17.50;99.90
13665;DHT22;6905;50.770;6.730;2022-09-09T18:44:05;17.50;99.90
13665;DHT22;6905;50.770;6.730;2022-09-09T18:46:33;17.50;99.90
13665;DHT22;6905;50.770;6.730;2022-09-09T18:48:59;17.50;99.90
13665;DHT22;6905;50.770;6.730;2022-09-09T18:51:27;17.50;99.90
13665;DHT22;6905;50.770;6.730;2022-09-09T18:53:56;17.50;99.90
13665;DHT22;6905;50.770;6.730;2022-09-09T18:56:22;17.40;99.90
13665;DHT22;6905;50.770;6.730;2022-09-09T18:58:50;17.40;99.90
13665;DHT22;6905;50.770;6.730;2022-09-09T19:01:19;17.40;99.90
13665;DHT22;6905;50.770;6.730;2022-09-09T19:03:45;17.40;99.90
13665;DHT22;6905;50.770;6.730;2022-09-09T19:06:12;17.30;99.90
13665;DHT22;6905;50.770;6.730;2022-09-09T19:08:40;17.30;99.90
13665;DHT22;6905;50.770;6.730;2022-09-09T19:11:08;17.30;99.90
13665;DHT22;6905;50.770;6.730;2022-09-09T19:13:36;17.20;99.90
13665;DHT22;6905;50.770;6.730;2022-09-09T19:16:03;17.20;99.90
13665;DHT22;6905;50.770;6.730;2022-09-09T19:18:30;17.20;99.90
13665;DHT22;6905;50.770;6.730;2022-09-09T19:21:07;17.20;99.90
13665;DHT22;6905;50.770;6.730;2022-09-09T19:23:33;17.10;99.90
13665;DHT22;6905;50.770;6.730;2022-09-09T19:26:00;17.10;99.90
13665;DHT22;6905;50.770;6.730;2022-09-09T19:28:28;17.10;99.90
13665;DHT22;6905;50.770;6.730;2022-09-09T19:30:55;17.10;99.90
13665;DHT22;6905;50.770;6.730;2022-09-09T19:33:21;17.10;99.90
13665;DHT22;6905;50.770;6.730;2022-09-09T19:35:56;17.10;99.90
13665;DHT22;6905;50.770;6.730;2022-09-09T19:38:23;17.10;99.90
13665;DHT22;6905;50.770;6.730;2022-09-09T19:40:50;17.00;99.90
13665;DHT22;6905;50.770;6.730;2022-09-09T19:43:17;17.00;99.90
13665;DHT22;6905;50.770;6.730;2022-09-09T19:45:45;17.00;99.90
13665;DHT22;6905;50.770;6.730;2022-09-09T19:48:21;17.00;99.90
13665;DHT22;6905;50.770;6.730;2022-09-09T19:50:49;17.00;99.90
13665;DHT22;6905;50.770;6.730;2022-09-09T19:53:15;17.00;99.90
13665;DHT22;6905;50.770;6.730;2022-09-09T19:55:43;17.00;99.90
13665;DHT22;6905;50.770;6.730;2022-09-09T19:58:10;17.00;99.90
13665;DHT22;6905;50.770;6.730;2022-09-09T20:00:38;17.00;99.90
13665;DHT22;6905;50.770;6.730;2022-09-09T20:03:06;17.00;99.90
13665;DHT22;6905;50.770;6.730;2022-09-09T20:05:33;17.00;99.90
13665;DHT22;6905;50.770;6.730;2022-09-09T20:07:59;16.90;99.90
13665;DHT22;6905;50.770;6.730;2022-09-09T20:10:27;16.90;99.90
13665;DHT22;6905;50.770;6.730;2022-09-09T20:12:55;16.90;99.90
13665;DHT22;6905;50.770;6.730;2022-09-09T20:15:21;16.90;99.90
13665;DHT22;6905;50.770;6.730;2022-09-09T20:17:51;16.90;99.90
13665;DHT22;6905;50.770;6.730;2022-09-09T20:20:20;16.90;99.90
13665;DHT22;6905;50.770;6.730;2022-09-09T20:22:46;16.90;99.90
13665;DHT22;6905;50.770;6.730;2022-09-09T20:25:13;16.90;99.90
13665;DHT22;6905;50.770;6.730;2022-09-09T20:27:40;16.90;99.90
13665;DHT22;6905;50.770;6.730;2022-09-09T20:30:09;16.90;99.90
13665;DHT22;6905;50.770;6.730;2022-09-09T20:32:36;16.90;99.90
13665;DHT22;6905;50.770;6.730;2022-09-09T20:35:03;16.90;99.90
13665;DHT22;6905;50.770;6.730;2022-09-09T20:37:31;16.90;99.90
13665;DHT22;6905;50.770;6.730;2022-09-09T20:39:57;16.80;99.90
13665;DHT22;6905;50.770;6.730;2022-09-09T20:42:26;16.80;99.90
13665;DHT22;6905;50.770;6.730;2022-09-09T20:44:53;16.80;99.90
13665;DHT22;6905;50.770;6.730;2022-09-09T20:47:19;16.80;99.90
13665;DHT22;6905;50.770;6.730;2022-09-09T20:49:46;16.80;99.90
13665;DHT22;6905;50.770;6.730;2022-09-09T20:52:13;16.80;99.90
13665;DHT22;6905;50.770;6.730;2022-09-09T20:54:41;16.80;99.90
13665;DHT22;6905;50.770;6.730;2022-09-09T20:57:07;16.80;99.90
13665;DHT22;6905;50.770;6.730;2022-09-09T20:59:35;16.80;99.90
13665;DHT22;6905;50.770;6.730;2022-09-09T21:02:02;16.80;99.90
13665;DHT22;6905;50.770;6.730;2022-09-09T21:04:28;16.80;99.90
13665;DHT22;6905;50.770;6.730;2022-09-09T21:06:55;16.80;99.90
13665;DHT22;6905;50.770;6.730;2022-09-09T21:09:22;16.80;99.90
13665;DHT22;6905;50.770;6.730;2022-09-09T21:11:50;16.80;99.90
13665;DHT22;6905;50.770;6.730;2022-09-09T21:14:17;16.70;99.90
13665;DHT22;6905;50.770;6.730;2022-09-09T21:16:44;16.70;99.90
13665;DHT22;6905;50.770;6.730;2022-09-09T21:19:11;16.70;99.90
13665;DHT22;6905;50.770;6.730;2022-09-09T21:21:37;16.70;99.90
13665;DHT22;6905;50.770;6.730;2022-09-09T21:24:04;16.70;99.90
13665;DHT22;6905;50.770;6.730;2022-09-09T21:26:31;16.70;99.90
13665;DHT22;6905;50.770;6.730;2022-09-09T21:29:01;16.70;99.90
13665;DHT22;6905;50.770;6.730;2022-09-09T21:31:27;16.60;99.90
13665;DHT22;6905;50.770;6.730;2022-09-09T21:33:55;16.60;99.90
13665;DHT22;6905;50.770;6.730;2022-09-09T21:36:22;16.60;99.90
13665;DHT22;6905;50.770;6.730;2022-09-09T21:38:49;16.60;99.90
13665;DHT22;6905;50.770;6.730;2022-09-09T21:41:16;16.60;99.90
13665;DHT22;6905;50.770;6.730;2022-09-09T21:43:44;16.60;99.90
13665;DHT22;6905;50.770;6.730;2022-09-09T21:46:13;16.60;99.90
13665;DHT22;6905;50.770;6.730;2022-09-09T21:48:40;16.50;99.90
13665;DHT22;6905;50.770;6.730;2022-09-09T21:51:07;16.50;99.90
13665;DHT22;6905;50.770;6.730;2022-09-09T21:53:34;16.50;99.90
13665;DHT22;6905;50.770;6.730;2022-09-09T21:56:01;16.50;99.90
13665;DHT22;6905;50.770;6.730;2022-09-09T21:58:28;16.50;99.90
13665;DHT22;6905;50.770;6.730;2022-09-09T22:00:55;16.50;99.90
13665;DHT22;6905;50.770;6.730;2022-09-09T22:03:24;16.50;99.90
13665;DHT22;6905;50.770;6.730;2022-09-09T22:05:50;16.40;99.90
13665;DHT22;6905;50.770;6.730;2022-09-09T22:08:17;16.40;99.90
13665;DHT22;6905;50.770;6.730;2022-09-09T22:10:44;16.40;99.90
13665;DHT22;6905;50.770;6.730;2022-09-09T22:13:11;16.40;99.90
13665;DHT22;6905;50.770;6.730;2022-09-09T22:15:39;16.30;99.90
13665;DHT22;6905;50.770;6.730;2022-09-09T22:18:06;16.30;99.90
13665;DHT22;6905;50.770;6.730;2022-09-09T22:20:38;16.30;99.90
13665;DHT22;6905;50.770;6.730;2022-09-09T22:23:04;16.30;99.90
13665;DHT22;6905;50.770;6.730;2022-09-09T22:25:31;16.30;99.90
13665;DHT22;6905;50.770;6.730;2022-09-09T22:27:59;16.20;99.90
13665;DHT22;6905;50.770;6.730;2022-09-09T22:30:26;16.20;99.90
13665;DHT22;6905;50.770;6.730;2022-09-09T22:32:53;16.20;99.90
13665;DHT22;6905;50.770;6.730;2022-09-09T22:35:19;16.20;99.90
13665;DHT22;6905;50.770;6.730;2022-09-09T22:37:47;16.20;99.90
13665;DHT22;6905;50.770;6.730;2022-09-09T22:40:14;16.10;99.90
13665;DHT22;6905;50.770;6.730;2022-09-09T22:42:41;16.20;99.90
13665;DHT22;6905;50.770;6.730;2022-09-09T22:45:07;16.20;99.90
13665;DHT22;6905;50.770;6.730;2022-09-09T22:47:34;16.10;99.90
13665;DHT22;6905;50.770;6.730;2022-09-09T22:50:01;16.10;99.90
13665;DHT22;6905;50.770;6.730;2022-09-09T22:52:28;16.10;99.90
13665;DHT22;6905;50.770;6.730;2022-09-09T22:54:57;16.20;99.90
13665;DHT22;6905;50.770;6.730;2022-09-09T22:57:24;16.10;99.90
13665;DHT22;6905;50.770;6.730;2022-09-09T22:59:51;16.20;99.90
13665;DHT22;6905;50.770;6.730;2022-09-09T23:02:17;16.10;99.90
13665;DHT22;6905;50.770;6.730;2022-09-09T23:04:44;16.10;99.90
13665;DHT22;6905;50.770;6.730;2022-09-09T23:07:11;16.10;99.90
13665;DHT22;6905;50.770;6.730;2022-09-09T23:09:38;16.10;99.90
13665;DHT22;6905;50.770;6.730;2022-09-09T23:12:06;16.10;99.90
13665;DHT22;6905;50.770;6.730;2022-09-09T23:14:34;16.10;99.90
13665;DHT22;6905;50.770;6.730;2022-09-09T23:17:00;16.00;99.90
13665;DHT22;6905;50.770;6.730;2022-09-09T23:19:27;16.00;99.90
13665;DHT22;6905;50.770;6.730;2022-09-09T23:21:54;16.10;99.90
13665;DHT22;6905;50.770;6.730;2022-09-09T23:24:20;16.10;99.90
13665;DHT22;6905;50.770;6.730;2022-09-09T23:26:47;16.00;99.90
13665;DHT22;6905;50.770;6.730;2022-09-09T23:29:16;16.00;99.90
13665;DHT22;6905;50.770;6.730;2022-09-09T23:31:44;16.00;99.90
13665;DHT22;6905;50.770;6.730;2022-09-09T23:34:11;16.00;99.90
13665;DHT22;6905;50.770;6.730;2022-09-09T23:36:38;16.00;99.90
13665;DHT22;6905;50.770;6.730;2022-09-09T23:39:06;16.00;99.90
13665;DHT22;6905;50.770;6.730;2022-09-09T23:41:32;16.00;99.90
13665;DHT22;6905;50.770;6.730;2022-09-09T23:43:59;16.00;99.90
13665;DHT22;6905;50.770;6.730;2022-09-09T23:46:28;15.90;99.90
13665;DHT22;6905;50.770;6.730;2022-09-09T23:48:56;15.90;99.90
13665;DHT22;6905;50.770;6.730;2022-09-09T23:51:24;15.80;99.90
13665;DHT22;6905;50.770;6.730;2022-09-09T23:53:52;15.80;99.90
13665;DHT22;6905;50.770;6.730;2022-09-09T23:56:22;15.80;99.90
13665;DHT22;6905;50.770;6.730;2022-09-09T23:58:48;15.80;99.90
